createdAt,value
2019-05-29T00:01:02.098Z,60.86
2019-05-29T00:03:28.008Z,60.52
2019-05-29T00:05:54.380Z,60.16
2019-05-29T00:08:20.356Z,60.14
2019-05-29T00:10:46.329Z,60.27
2019-05-29T00:13:12.426Z,60.47
2019-05-29T00:15:41.527Z,60.16
2019-05-29T00:18:08.810Z,60.11
2019-05-29T00:20:35.176Z,60.16
2019-05-29T00:23:01.239Z,60.01
2019-05-29T00:25:27.188Z,60.39
2019-05-29T00:27:53.144Z,60.12
2019-05-29T00:30:19.192Z,60.12
2019-05-29T00:32:44.999Z,60.05
2019-05-29T00:35:12.172Z,60.13
2019-05-29T00:37:40.115Z,60.20
2019-05-29T00:40:06.741Z,60.17
2019-05-29T00:42:32.783Z,60.04
2019-05-29T00:44:58.806Z,59.86
2019-05-29T00:47:24.880Z,60.14
2019-05-29T00:49:51.248Z,59.80
2019-05-29T00:52:18.291Z,59.82
2019-05-29T00:54:44.480Z,59.91
2019-05-29T00:57:10.902Z,60.20
2019-05-29T00:59:36.840Z,59.84
2019-05-29T01:02:02.822Z,59.98
2019-05-29T01:04:28.889Z,59.77
2019-05-29T01:06:54.812Z,59.81
2019-05-29T01:09:20.809Z,59.84
2019-05-29T01:11:47.170Z,60.10
2019-05-29T01:14:13.139Z,59.73
2019-05-29T01:16:39.495Z,59.84
2019-05-29T01:19:23.782Z,59.78
2019-05-29T01:21:49.770Z,59.56
2019-05-29T01:24:16.300Z,59.34
2019-05-29T01:26:42.383Z,59.73
2019-05-29T01:29:11.453Z,59.54
2019-05-29T01:31:37.493Z,59.48
2019-05-29T01:34:03.859Z,59.84
2019-05-29T01:36:29.922Z,59.61
2019-05-29T01:38:56.288Z,59.55
2019-05-29T01:41:23.432Z,59.64
2019-05-29T01:43:49.619Z,59.35
2019-05-29T01:46:15.665Z,59.18
2019-05-29T01:48:41.920Z,59.31
2019-05-29T01:51:10.537Z,59.57
2019-05-29T01:53:36.490Z,59.52
2019-05-29T01:56:02.551Z,59.52
2019-05-29T01:58:28.616Z,59.34
2019-05-29T02:00:54.665Z,59.16
2019-05-29T02:03:21.848Z,59.32
2019-05-29T02:05:47.914Z,59.26
2019-05-29T02:08:13.959Z,59.25
2019-05-29T02:10:39.941Z,59.14
2019-05-29T02:13:05.893Z,59.19
2019-05-29T02:15:33.964Z,59.08
2019-05-29T02:18:00.023Z,59.15
2019-05-29T02:20:26.904Z,59.32
2019-05-29T02:22:53.043Z,59.09
2019-05-29T02:25:20.653Z,59.07
2019-05-29T02:27:46.780Z,58.58
2019-05-29T02:30:12.939Z,58.49
2019-05-29T02:32:39.405Z,58.75
2019-05-29T02:35:05.450Z,58.76
2019-05-29T02:37:31.343Z,59.16
2019-05-29T02:39:57.353Z,58.37
2019-05-29T02:42:25.003Z,59.15
2019-05-29T02:44:51.034Z,59.13
2019-05-29T02:47:17.069Z,59.74
2019-05-29T02:49:43.119Z,59.24
2019-05-29T02:52:09.089Z,59.20
2019-05-29T02:54:35.036Z,58.21
2019-05-29T02:57:01.069Z,59.37
2019-05-29T02:59:27.767Z,58.99
2019-05-29T03:01:55.145Z,58.91
2019-05-29T03:04:21.693Z,59.67
2019-05-29T03:06:47.713Z,58.60
2019-05-29T03:09:13.580Z,58.35
2019-05-29T03:11:39.739Z,59.13
2019-05-29T03:14:05.752Z,58.28
2019-05-29T03:16:32.861Z,58.65
2019-05-29T03:18:59.437Z,59.20
2019-05-29T03:21:26.082Z,58.49
2019-05-29T03:23:52.141Z,58.59
2019-05-29T03:26:18.410Z,59.32
2019-05-29T03:28:44.375Z,58.80
2019-05-29T03:31:10.351Z,58.52
2019-05-29T03:33:45.206Z,58.93
2019-05-29T03:36:03.963Z,58.52
2019-05-29T03:38:30.310Z,58.29
2019-05-29T03:40:56.383Z,59.54
2019-05-29T03:43:22.443Z,58.30
2019-05-29T03:45:48.591Z,59.03
2019-05-29T03:48:14.642Z,58.59
2019-05-29T03:50:40.694Z,58.06
2019-05-29T03:53:06.743Z,59.24
2019-05-29T03:55:33.811Z,58.39
2019-05-29T03:58:00.719Z,57.98
2019-05-29T04:00:32.040Z,58.06
2019-05-29T04:02:54.549Z,57.85
2019-05-29T04:05:20.471Z,58.73
2019-05-29T04:07:46.324Z,57.80
2019-05-29T04:10:12.237Z,57.96
2019-05-29T04:12:38.815Z,57.93
2019-05-29T04:15:04.834Z,58.52
2019-05-29T04:17:31.970Z,57.83
2019-05-29T04:19:58.551Z,57.89
2019-05-29T04:22:27.936Z,58.65
2019-05-29T04:24:54.032Z,58.06
2019-05-29T04:27:19.894Z,57.93
2019-05-29T04:29:46.337Z,58.39
2019-05-29T04:32:12.387Z,59.01
2019-05-29T04:34:41.346Z,58.65
2019-05-29T04:37:07.564Z,59.04
2019-05-29T04:39:34.483Z,58.08
2019-05-29T04:42:00.510Z,58.31
2019-05-29T04:44:26.562Z,57.76
2019-05-29T04:47:09.435Z,58.44
2019-05-29T04:49:20.548Z,58.72
2019-05-29T04:51:46.586Z,58.71
2019-05-29T04:54:12.644Z,58.97
2019-05-29T04:56:39.113Z,58.72
2019-05-29T04:59:05.389Z,58.66
2019-05-29T05:01:31.415Z,59.01
2019-05-29T05:03:57.782Z,58.76
2019-05-29T05:06:23.844Z,59.08
2019-05-29T05:08:49.903Z,58.73
2019-05-29T05:11:15.857Z,58.49
2019-05-29T05:13:41.822Z,58.29
2019-05-29T05:16:10.449Z,58.26
2019-05-29T05:18:36.361Z,58.19
2019-05-29T05:21:02.367Z,57.40
2019-05-29T05:23:28.434Z,58.08
2019-05-29T05:25:54.722Z,58.35
2019-05-29T05:28:21.040Z,58.08
2019-05-29T05:30:47.241Z,57.63
2019-05-29T05:33:13.294Z,57.41
2019-05-29T05:35:39.357Z,58.29
2019-05-29T05:38:05.327Z,58.90
2019-05-29T05:40:31.356Z,57.87
2019-05-29T05:42:58.639Z,57.67
2019-05-29T05:45:24.731Z,58.16
2019-05-29T05:47:57.443Z,58.04
2019-05-29T05:50:18.567Z,59.16
2019-05-29T05:52:44.612Z,58.75
2019-05-29T05:55:10.672Z,58.40
2019-05-29T05:57:37.738Z,58.88
2019-05-29T06:00:08.631Z,59.60
2019-05-29T06:02:35.816Z,58.92
2019-05-29T06:05:02.367Z,59.10
2019-05-29T06:07:28.533Z,59.13
2019-05-29T06:09:54.427Z,57.83
2019-05-29T06:12:20.457Z,58.04
2019-05-29T06:14:46.515Z,58.76
2019-05-29T06:17:12.467Z,59.69
2019-05-29T06:19:43.010Z,59.00
2019-05-29T06:22:09.620Z,58.24
2019-05-29T06:24:36.969Z,58.51
2019-05-29T06:27:03.130Z,57.52
2019-05-29T06:29:29.319Z,58.72
2019-05-29T06:31:55.374Z,59.09
2019-05-29T06:34:21.428Z,59.54
2019-05-29T06:36:48.315Z,58.13
2019-05-29T06:39:14.464Z,59.54
2019-05-29T06:41:41.938Z,59.31
2019-05-29T06:44:08.265Z,60.08
2019-05-29T06:46:36.052Z,59.51
2019-05-29T06:49:02.222Z,59.12
2019-05-29T06:51:28.255Z,59.46
2019-05-29T06:53:54.531Z,59.75
2019-05-29T06:56:20.477Z,59.88
2019-05-29T06:58:46.460Z,58.98
2019-05-29T07:01:12.486Z,59.53
2019-05-29T07:03:41.762Z,60.00
2019-05-29T07:06:09.824Z,59.91
2019-05-29T07:08:40.008Z,60.32
2019-05-29T07:11:03.421Z,59.84
2019-05-29T07:13:29.457Z,59.80
2019-05-29T07:15:55.395Z,59.58
2019-05-29T07:18:21.356Z,59.76
2019-05-29T07:20:47.503Z,59.06
2019-05-29T07:23:13.586Z,59.71
2019-05-29T07:25:40.811Z,60.12
2019-05-29T07:28:06.824Z,59.67
2019-05-29T07:30:32.881Z,59.42
2019-05-29T07:32:59.230Z,59.60
2019-05-29T07:35:25.212Z,59.75
2019-05-29T07:37:51.098Z,59.65
2019-05-29T07:40:16.951Z,59.97
2019-05-29T07:42:49.757Z,60.28
2019-05-29T07:45:10.659Z,60.29
2019-05-29T07:47:38.138Z,59.64
2019-05-29T07:50:04.612Z,59.87
2019-05-29T07:52:40.653Z,59.24
2019-05-29T07:55:06.815Z,58.65
2019-05-29T07:57:32.832Z,59.16
2019-05-29T07:59:58.887Z,58.69
2019-05-29T08:02:24.862Z,58.44
2019-05-29T08:04:50.897Z,59.07
2019-05-29T08:07:16.853Z,59.38
2019-05-29T08:09:43.622Z,59.42
2019-05-29T08:12:09.791Z,58.75
2019-05-29T08:14:35.859Z,59.05
2019-05-29T08:17:01.924Z,58.96
2019-05-29T08:19:27.878Z,58.64
2019-05-29T08:21:53.836Z,59.32
2019-05-29T08:24:23.848Z,58.94
2019-05-29T08:26:48.817Z,58.93
2019-05-29T08:29:14.892Z,59.19
2019-05-29T08:31:40.873Z,59.24
2019-05-29T08:34:06.894Z,59.34
2019-05-29T08:36:32.944Z,59.42
2019-05-29T08:38:58.997Z,59.41
2019-05-29T08:41:25.047Z,59.17
2019-05-29T08:43:51.114Z,59.24
2019-05-29T08:46:17.169Z,59.40
2019-05-29T08:48:43.682Z,59.63
2019-05-29T08:51:10.091Z,59.61
2019-05-29T08:53:36.138Z,59.80
2019-05-29T08:56:02.298Z,59.42
2019-05-29T08:58:28.861Z,59.00
2019-05-29T09:00:55.376Z,59.75
2019-05-29T09:03:21.398Z,59.47
2019-05-29T09:06:04.307Z,59.55
2019-05-29T09:08:15.212Z,59.76
2019-05-29T09:10:41.264Z,59.65
2019-05-29T09:13:07.319Z,59.51
2019-05-29T09:15:33.376Z,59.63
2019-05-29T09:17:59.416Z,59.91
2019-05-29T09:20:43.227Z,59.77
2019-05-29T09:22:53.088Z,59.66
2019-05-29T09:25:19.182Z,59.42
2019-05-29T09:27:45.195Z,59.18
2019-05-29T09:30:11.257Z,58.80
2019-05-29T09:32:49.671Z,59.47
2019-05-29T09:35:05.020Z,59.51
2019-05-29T09:37:31.043Z,59.62
2019-05-29T09:39:57.501Z,59.21
2019-05-29T09:42:23.757Z,59.13
2019-05-29T09:44:49.829Z,59.22
2019-05-29T09:47:17.261Z,59.04
2019-05-29T09:49:43.644Z,59.05
2019-05-29T09:52:09.699Z,59.37
2019-05-29T09:54:35.784Z,59.02
2019-05-29T09:57:02.828Z,59.16
2019-05-29T09:59:28.982Z,59.34
2019-05-29T10:01:57.022Z,59.19
2019-05-29T10:04:22.723Z,59.57
2019-05-29T10:06:48.768Z,59.65
2019-05-29T10:09:14.716Z,59.75
2019-05-29T10:11:40.971Z,59.57
2019-05-29T10:14:07.041Z,59.22
2019-05-29T10:16:33.379Z,59.19
2019-05-29T10:19:00.379Z,58.68
2019-05-29T10:21:39.015Z,59.12
2019-05-29T10:23:56.662Z,59.34
2019-05-29T10:26:22.963Z,58.64
2019-05-29T10:29:02.052Z,58.96
2019-05-29T10:31:16.812Z,59.61
2019-05-29T10:33:44.017Z,59.32
2019-05-29T10:36:10.151Z,59.54
2019-05-29T10:38:36.192Z,59.24
2019-05-29T10:41:06.810Z,59.52
2019-05-29T10:43:34.031Z,59.55
2019-05-29T10:45:57.744Z,59.62
2019-05-29T10:48:23.782Z,59.44
2019-05-29T10:50:52.167Z,59.67
2019-05-29T10:53:17.929Z,59.67
2019-05-29T10:55:44.453Z,59.60
2019-05-29T10:58:10.567Z,59.70
2019-05-29T11:00:39.095Z,59.65
2019-05-29T11:03:04.311Z,59.60
2019-05-29T11:05:30.397Z,59.38
2019-05-29T11:07:56.420Z,59.07
2019-05-29T11:10:22.791Z,59.32
2019-05-29T11:12:48.834Z,59.68
2019-05-29T11:15:21.246Z,59.41
2019-05-29T11:17:42.501Z,59.76
2019-05-29T11:20:11.810Z,57.53
2019-05-29T11:22:38.072Z,59.36
2019-05-29T11:25:21.702Z,59.44
2019-05-29T11:27:32.236Z,59.60
2019-05-29T11:29:59.130Z,59.68
2019-05-29T11:32:25.176Z,59.67
2019-05-29T11:34:52.318Z,59.71
2019-05-29T11:37:18.939Z,59.63
2019-05-29T11:39:45.000Z,59.67
2019-05-29T11:42:26.269Z,59.61
2019-05-29T11:44:38.990Z,59.63
2019-05-29T11:47:05.036Z,59.57
2019-05-29T11:49:31.109Z,59.65
2019-05-29T11:52:18.613Z,59.60
2019-05-29T11:54:24.970Z,59.54
2019-05-29T11:56:53.206Z,59.31
2019-05-29T11:59:18.601Z,59.47
2019-05-29T12:01:50.405Z,59.47
2019-05-29T12:04:25.418Z,59.27
2019-05-29T12:06:40.024Z,58.97
2019-05-29T12:09:07.127Z,59.60
2019-05-29T12:11:33.468Z,59.63
2019-05-29T12:14:00.471Z,59.55
2019-05-29T12:16:27.308Z,59.35
2019-05-29T12:18:53.660Z,59.42
2019-05-29T12:21:19.738Z,59.44
2019-05-29T12:23:45.660Z,59.43
2019-05-29T12:26:21.831Z,59.57
2019-05-29T12:28:39.530Z,59.49
2019-05-29T12:31:05.647Z,59.67
2019-05-29T12:33:31.709Z,59.54
2019-05-29T12:35:59.015Z,59.57
2019-05-29T12:38:25.157Z,59.70
2019-05-29T12:40:51.541Z,59.56
2019-05-29T12:43:26.725Z,59.61
2019-05-29T12:45:45.273Z,59.26
2019-05-29T12:48:13.847Z,59.44
2019-05-29T12:50:39.018Z,59.65
2019-05-29T12:53:05.079Z,59.48
2019-05-29T12:55:31.226Z,59.64
2019-05-29T12:57:58.007Z,59.63
2019-05-29T13:00:24.157Z,59.60
2019-05-29T13:02:50.616Z,59.55
2019-05-29T13:05:20.366Z,59.52
2019-05-29T13:07:44.454Z,59.57
2019-05-29T13:10:10.500Z,59.36
2019-05-29T13:12:36.545Z,58.91
2019-05-29T13:15:05.782Z,59.14
2019-05-29T13:17:31.920Z,59.52
2019-05-29T13:20:06.086Z,59.50
2019-05-29T13:22:25.760Z,59.44
2019-05-29T13:24:52.793Z,59.28
2019-05-29T13:27:18.985Z,59.42
2019-05-29T13:29:45.035Z,59.61
2019-05-29T13:32:10.982Z,59.70
2019-05-29T13:34:36.954Z,59.47
2019-05-29T13:37:06.708Z,59.72
2019-05-29T13:39:30.764Z,59.69
2019-05-29T13:41:58.592Z,59.19
2019-05-29T13:44:24.531Z,59.61
2019-05-29T13:46:50.579Z,59.57
2019-05-29T13:49:16.634Z,59.57
2019-05-29T13:51:43.107Z,59.34
2019-05-29T13:54:15.383Z,59.25
2019-05-29T13:56:37.255Z,59.43
2019-05-29T13:59:04.861Z,59.50
2019-05-29T14:01:31.004Z,58.72
2019-05-29T14:03:58.069Z,59.29
2019-05-29T14:06:24.257Z,59.24
2019-05-29T14:08:50.272Z,59.26
2019-05-29T14:11:16.322Z,59.08
2019-05-29T14:13:42.372Z,59.26
2019-05-29T14:16:10.480Z,59.39
2019-05-29T14:18:36.522Z,59.44
2019-05-29T14:21:03.168Z,59.20
2019-05-29T14:23:29.180Z,59.34
2019-05-29T14:25:55.197Z,59.20
2019-05-29T14:28:21.169Z,59.32
2019-05-29T14:30:47.195Z,59.43
2019-05-29T14:33:15.152Z,59.32
2019-05-29T14:35:41.452Z,59.37
2019-05-29T14:38:10.876Z,59.32
2019-05-29T14:40:35.696Z,59.28
2019-05-29T14:43:01.757Z,59.31
2019-05-29T14:45:27.743Z,59.45
2019-05-29T14:47:53.772Z,59.24
2019-05-29T14:50:19.822Z,59.49
2019-05-29T14:52:45.887Z,59.47
2019-05-29T14:55:16.263Z,59.45
2019-05-29T14:57:39.561Z,59.47
2019-05-29T15:00:17.399Z,59.18
2019-05-29T15:02:34.004Z,59.39
2019-05-29T15:05:00.056Z,59.39
2019-05-29T15:07:26.107Z,59.44
2019-05-29T15:09:52.155Z,59.42
2019-05-29T15:12:18.205Z,59.53
2019-05-29T15:14:44.255Z,59.44
2019-05-29T15:17:11.014Z,59.53
2019-05-29T15:19:37.065Z,59.54
2019-05-29T15:22:03.038Z,59.57
2019-05-29T15:24:29.063Z,59.63
2019-05-29T15:26:55.014Z,59.64
2019-05-29T15:29:20.964Z,59.67
2019-05-29T15:31:47.317Z,59.63
2019-05-29T15:34:14.348Z,59.67
2019-05-29T15:36:40.542Z,59.72
2019-05-29T15:39:10.568Z,59.70
2019-05-29T15:41:35.533Z,59.57
2019-05-29T15:44:01.583Z,59.37
2019-05-29T15:46:27.654Z,59.58
2019-05-29T15:48:53.722Z,59.57
2019-05-29T15:51:21.883Z,59.47
2019-05-29T15:53:47.575Z,59.44
2019-05-29T15:56:21.676Z,59.60
2019-05-29T15:58:41.326Z,59.59
2019-05-29T16:01:07.682Z,59.53
2019-05-29T16:03:33.647Z,59.43
2019-05-29T16:05:59.979Z,59.61
2019-05-29T16:08:25.833Z,59.57
2019-05-29T16:10:51.679Z,59.65
2019-05-29T16:13:18.937Z,59.35
2019-05-29T16:15:45.022Z,59.50
2019-05-29T16:18:19.904Z,59.44
2019-05-29T16:20:39.079Z,59.53
2019-05-29T16:23:05.121Z,59.29
2019-05-29T16:25:40.184Z,59.32
2019-05-29T16:27:59.182Z,59.53
2019-05-29T16:30:25.241Z,59.52
2019-05-29T16:32:51.293Z,59.41
2019-05-29T16:35:17.291Z,59.48
2019-05-29T16:37:43.287Z,59.25
2019-05-29T16:40:09.758Z,59.12
2019-05-29T16:42:35.708Z,59.17
2019-05-29T16:45:02.398Z,58.89
2019-05-29T16:47:28.689Z,59.01
2019-05-29T16:49:54.722Z,58.78
2019-05-29T16:52:20.978Z,58.99
2019-05-29T16:54:47.046Z,58.91
2019-05-29T16:57:13.089Z,59.13
2019-05-29T16:59:39.448Z,59.05
2019-05-29T17:02:05.384Z,59.15
2019-05-29T17:04:31.359Z,58.92
2019-05-29T17:06:57.423Z,58.91
2019-05-29T17:09:24.554Z,58.94
2019-05-29T17:11:50.677Z,58.93
2019-05-29T17:14:16.741Z,59.04
2019-05-29T17:16:43.105Z,58.82
2019-05-29T17:19:09.187Z,59.05
2019-05-29T17:21:35.539Z,59.19
2019-05-29T17:24:01.499Z,59.13
2019-05-29T17:26:27.561Z,59.06
2019-05-29T17:28:53.615Z,59.28
2019-05-29T17:31:20.895Z,58.96
2019-05-29T17:33:47.171Z,58.80
2019-05-29T17:36:13.084Z,59.04
2019-05-29T17:38:39.386Z,58.97
2019-05-29T17:41:05.354Z,58.84
2019-05-29T17:43:31.321Z,58.87
2019-05-29T17:45:57.467Z,58.88
2019-05-29T17:48:23.937Z,58.74
2019-05-29T17:50:50.388Z,58.85
2019-05-29T17:53:17.625Z,58.75
2019-05-29T17:55:46.607Z,58.94
2019-05-29T17:58:11.531Z,58.52
2019-05-29T18:00:38.802Z,58.93
2019-05-29T18:03:04.854Z,57.93
2019-05-29T18:05:30.917Z,57.37
2019-05-29T18:08:01.298Z,55.84
2019-05-29T18:10:25.704Z,57.11
2019-05-29T18:12:52.176Z,57.20
2019-05-29T18:15:19.281Z,56.18
2019-05-29T18:17:45.618Z,56.14
2019-05-29T18:20:14.404Z,56.53
2019-05-29T18:22:39.367Z,57.21
2019-05-29T18:25:05.410Z,57.16
2019-05-29T18:27:31.465Z,57.00
2019-05-29T18:29:57.539Z,57.52
2019-05-29T18:32:24.525Z,57.15
2019-05-29T18:34:53.645Z,57.05
2019-05-29T18:37:18.279Z,57.44
2019-05-29T18:39:44.664Z,57.34
2019-05-29T18:42:10.735Z,57.67
2019-05-29T18:44:37.099Z,57.77
2019-05-29T18:47:03.172Z,58.39
2019-05-29T18:49:29.236Z,58.10
2019-05-29T18:51:55.597Z,58.20
2019-05-29T18:54:21.668Z,57.63
2019-05-29T18:57:13.127Z,58.56
2019-05-29T18:59:15.565Z,58.70
2019-05-29T19:01:41.737Z,58.59
2019-05-29T19:04:08.097Z,59.03
2019-05-29T19:06:34.169Z,58.67
2019-05-29T19:09:00.108Z,59.06
2019-05-29T19:11:26.369Z,58.46
2019-05-29T19:13:52.345Z,59.22
2019-05-29T19:16:18.378Z,58.91
2019-05-29T19:18:44.339Z,58.16
2019-05-29T19:21:10.392Z,58.93
2019-05-29T19:23:36.448Z,58.78
2019-05-29T19:26:02.424Z,58.33
2019-05-29T19:28:28.720Z,58.15
2019-05-29T19:30:54.754Z,58.84
2019-05-29T19:33:20.713Z,57.03
2019-05-29T19:35:47.097Z,57.34
2019-05-29T19:38:13.173Z,57.92
2019-05-29T19:40:39.241Z,57.22
2019-05-29T19:43:05.305Z,57.26
2019-05-29T19:45:32.509Z,56.64
2019-05-29T19:47:59.310Z,56.95
2019-05-29T19:50:26.383Z,57.48
2019-05-29T19:52:52.786Z,56.18
2019-05-29T19:55:18.871Z,55.56
2019-05-29T19:57:55.550Z,54.73
2019-05-29T20:00:12.629Z,54.95
2019-05-29T20:02:38.697Z,56.05
2019-05-29T20:05:05.472Z,54.25
2019-05-29T20:07:31.533Z,55.42
2019-05-29T20:09:57.592Z,55.23
2019-05-29T20:12:23.645Z,54.62
2019-05-29T20:14:49.616Z,54.77
2019-05-29T20:17:15.679Z,55.29
2019-05-29T20:19:42.055Z,55.23
2019-05-29T20:22:10.942Z,54.06
2019-05-29T20:24:36.984Z,53.64
2019-05-29T20:27:03.329Z,54.82
2019-05-29T20:29:30.274Z,54.28
2019-05-29T20:31:56.422Z,54.72
2019-05-29T20:34:22.501Z,54.97
2019-05-29T20:36:48.582Z,55.09
2019-05-29T20:39:14.638Z,54.51
2019-05-29T20:41:43.551Z,55.43
2019-05-29T20:44:09.976Z,55.29
2019-05-29T20:46:36.613Z,54.31
2019-05-29T20:49:03.727Z,55.03
2019-05-29T20:51:30.108Z,55.14
2019-05-29T20:53:56.517Z,54.27
2019-05-29T20:56:22.524Z,54.34
2019-05-29T20:58:48.455Z,53.95
2019-05-29T21:01:14.445Z,54.22
2019-05-29T21:03:40.910Z,54.31
2019-05-29T21:06:06.943Z,54.41
2019-05-29T21:08:33.020Z,54.68
2019-05-29T21:10:59.099Z,55.41
2019-05-29T21:13:25.152Z,55.23
2019-05-29T21:15:51.223Z,55.11
2019-05-29T21:18:17.289Z,55.54
2019-05-29T21:20:44.618Z,55.49
2019-05-29T21:23:10.737Z,54.70
2019-05-29T21:25:37.113Z,54.94
2019-05-29T21:28:03.173Z,54.90
2019-05-29T21:30:29.185Z,55.11
2019-05-29T21:32:55.068Z,55.20
2019-05-29T21:35:21.280Z,54.87
2019-05-29T21:37:47.158Z,54.51
2019-05-29T21:40:13.809Z,54.39
2019-05-29T21:42:40.566Z,54.12
2019-05-29T21:45:06.651Z,53.98
2019-05-29T21:47:32.705Z,54.46
2019-05-29T21:49:58.773Z,54.49
2019-05-29T21:52:25.232Z,54.10
2019-05-29T21:54:51.304Z,53.85
2019-05-29T21:57:17.387Z,53.93
2019-05-29T21:59:43.816Z,53.88
2019-05-29T22:02:09.839Z,53.67
2019-05-29T22:04:36.092Z,53.63
2019-05-29T22:07:02.262Z,53.44
2019-05-29T22:09:28.311Z,53.31
2019-05-29T22:11:54.371Z,53.26
2019-05-29T22:14:20.727Z,53.25
2019-05-29T22:16:47.023Z,53.31
2019-05-29T22:19:12.956Z,53.55
2019-05-29T22:21:39.008Z,53.43
2019-05-29T22:24:05.063Z,53.44
2019-05-29T22:26:31.048Z,53.33
2019-05-29T22:28:58.598Z,53.25
2019-05-29T22:31:25.062Z,53.54
2019-05-29T22:33:51.444Z,53.20
2019-05-29T22:36:17.599Z,53.38
2019-05-29T22:38:43.661Z,53.25
2019-05-29T22:41:09.723Z,53.07
2019-05-29T22:43:35.998Z,53.17
2019-05-29T22:46:04.565Z,53.16
2019-05-29T22:48:31.203Z,53.19
2019-05-29T22:50:57.833Z,53.24
2019-05-29T22:53:24.420Z,53.56
2019-05-29T22:55:51.626Z,53.93
2019-05-29T22:58:17.971Z,53.41
2019-05-29T23:00:44.237Z,53.67
2019-05-29T23:03:11.138Z,53.64
2019-05-29T23:05:38.913Z,53.49
2019-05-29T23:08:05.129Z,53.55
2019-05-29T23:10:31.368Z,53.38
2019-05-29T23:13:01.123Z,53.18
2019-05-29T23:15:26.528Z,53.25
2019-05-29T23:17:54.400Z,53.30
2019-05-29T23:20:21.117Z,53.23
2019-05-29T23:22:47.588Z,53.15
2019-05-29T23:25:14.074Z,53.15
2019-05-29T23:27:40.570Z,53.40
2019-05-29T23:30:08.605Z,53.33
2019-05-29T23:32:34.895Z,53.13
2019-05-29T23:35:01.575Z,52.95
2019-05-29T23:37:27.630Z,53.08
2019-05-29T23:39:53.559Z,52.95
2019-05-29T23:42:19.525Z,52.79
2019-05-29T23:44:45.779Z,52.90
2019-05-29T23:47:11.726Z,53.02
2019-05-29T23:49:37.878Z,53.33
2019-05-29T23:52:04.971Z,53.30
2019-05-29T23:54:31.110Z,53.63
2019-05-29T23:56:57.933Z,53.46
2019-05-29T23:59:23.934Z,53.51
